createdAt,value
2023-01-11T00:00:25.714Z,93994.53
2023-01-11T00:05:28.727Z,93987.97
2023-01-11T00:10:30.253Z,93982.09
2023-01-11T00:15:31.915Z,93979.34
2023-01-11T00:20:34.905Z,93996.31
2023-01-11T00:25:36.720Z,93980.03
2023-01-11T00:30:38.262Z,94001.25
2023-01-11T00:35:41.372Z,94000.72
2023-01-11T00:40:42.787Z,93994.41
2023-01-11T00:45:44.284Z,94002.78
2023-01-11T00:50:47.120Z,94001.13
2023-01-11T00:55:48.633Z,94008.94
2023-01-11T01:00:50.137Z,94004.41
2023-01-11T01:05:55.497Z,93997.72
2023-01-11T01:10:57.050Z,94001.66
2023-01-11T01:15:58.546Z,93986.75
2023-01-11T01:21:01.444Z,93983.00
2023-01-11T01:26:03.564Z,93982.88
2023-01-11T01:31:05.158Z,93978.78
2023-01-11T01:36:08.804Z,93974.66
2023-01-11T01:41:12.061Z,93972.16
2023-01-11T01:46:14.325Z,93979.84
2023-01-11T01:51:21.224Z,93975.31
2023-01-11T01:56:27.194Z,93965.72
2023-01-11T02:01:30.169Z,93950.22
2023-01-11T02:06:34.193Z,93959.13
2023-01-11T02:11:36.057Z,93945.00
2023-01-11T02:16:37.714Z,93935.09
2023-01-11T02:21:55.734Z,93923.19
2023-01-11T02:27:23.005Z,93919.28
2023-01-11T02:32:34.548Z,93901.88
2023-01-11T02:37:42.806Z,93890.53
2023-01-11T02:42:52.170Z,93883.41
2023-01-11T02:48:00.113Z,93879.00
2023-01-11T02:53:07.792Z,93885.16
2023-01-11T02:58:11.179Z,93897.03
2023-01-11T03:03:17.455Z,93896.50
2023-01-11T03:08:47.128Z,93884.88
2023-01-11T03:13:59.594Z,93883.03
2023-01-11T03:19:13.374Z,93886.63
2023-01-11T03:24:24.537Z,93884.47
2023-01-11T03:29:31.158Z,93883.59
2023-01-11T03:34:37.611Z,93875.72
2023-01-11T03:39:45.017Z,93869.28
2023-01-11T03:44:51.065Z,93860.13
2023-01-11T03:49:58.704Z,93848.44
2023-01-11T03:55:01.379Z,93866.47
2023-01-11T04:00:05.467Z,93869.31
2023-01-11T04:05:10.911Z,93859.50
2023-01-11T04:10:12.436Z,93848.38
2023-01-11T04:15:14.291Z,93849.06
2023-01-11T04:20:17.493Z,93835.91
2023-01-11T04:25:18.998Z,93844.38
2023-01-11T04:30:20.866Z,93836.94
2023-01-11T04:35:23.747Z,93836.94
2023-01-11T04:40:25.814Z,93837.38
2023-01-11T04:45:27.377Z,93845.75
2023-01-11T04:50:30.225Z,93842.00
2023-01-11T04:55:31.776Z,93845.66
2023-01-11T05:00:33.378Z,93844.84
2023-01-11T05:05:36.278Z,93841.28
2023-01-11T05:10:37.819Z,93844.47
2023-01-11T05:15:39.304Z,93828.81
2023-01-11T05:20:42.248Z,93820.53
2023-01-11T05:25:46.021Z,93828.06
2023-01-11T05:30:51.151Z,93826.81
2023-01-11T05:35:58.304Z,93823.75
2023-01-11T05:41:01.381Z,93811.59
2023-01-11T05:46:03.071Z,93811.84
2023-01-11T05:51:06.038Z,93811.47
2023-01-11T05:56:07.858Z,93815.03
2023-01-11T06:01:12.692Z,93799.16
2023-01-11T06:06:16.953Z,93792.28
2023-01-11T06:11:18.533Z,93780.06
2023-01-11T06:16:20.976Z,93770.47
2023-01-11T06:21:23.918Z,93770.22
2023-01-11T06:26:25.426Z,93762.38
2023-01-11T06:31:26.934Z,93747.53
2023-01-11T06:36:30.036Z,93763.47
2023-01-11T06:41:32.027Z,93764.78
2023-01-11T06:46:33.654Z,93761.44
2023-01-11T06:51:36.468Z,93774.06
2023-01-11T06:56:38.006Z,93788.84
2023-01-11T07:01:39.686Z,93805.09
2023-01-11T07:06:42.641Z,93787.09
2023-01-11T07:11:44.215Z,93784.59
2023-01-11T07:16:45.813Z,93769.13
2023-01-11T07:21:48.679Z,93766.38
2023-01-11T07:26:50.255Z,93763.41
2023-01-11T07:31:51.835Z,93757.19
2023-01-11T07:36:54.737Z,93749.84
2023-01-11T07:41:56.215Z,93750.78
2023-01-11T07:46:57.849Z,93746.63
2023-01-11T07:52:00.773Z,93747.97
2023-01-11T07:57:02.318Z,93745.41
2023-01-11T08:02:03.843Z,93739.53
2023-01-11T08:07:06.691Z,93746.75
2023-01-11T08:12:08.365Z,93749.94
2023-01-11T08:17:12.617Z,93748.16
2023-01-11T08:22:15.616Z,93756.09
2023-01-11T08:27:17.183Z,93749.50
2023-01-11T08:32:18.755Z,93741.00
2023-01-11T08:37:21.632Z,93747.41
2023-01-11T08:42:23.072Z,93742.63
2023-01-11T08:47:24.594Z,93752.41
2023-01-11T08:52:27.490Z,93756.50
2023-01-11T08:57:29.049Z,93762.75
2023-01-11T09:02:30.553Z,93751.47
2023-01-11T09:07:33.565Z,93764.06
2023-01-11T09:12:35.330Z,93772.94
2023-01-11T09:17:36.956Z,93774.75
2023-01-11T09:22:40.143Z,93786.03
2023-01-11T09:27:42.860Z,93787.03
2023-01-11T09:32:45.872Z,93781.50
2023-01-11T09:37:49.626Z,93786.03
2023-01-11T09:42:51.991Z,93790.00
2023-01-11T09:47:56.094Z,93773.84
2023-01-11T09:53:00.923Z,93759.28
2023-01-11T09:58:23.033Z,93758.47
2023-01-11T10:03:48.741Z,93753.09
2023-01-11T10:18:23.744Z,93752.78
2023-01-11T10:20:13.932Z,93744.06
2023-01-11T10:25:20.375Z,93743.59
2023-01-11T10:30:26.850Z,93732.13
2023-01-11T10:35:33.343Z,93727.53
2023-01-11T10:40:44.414Z,93735.34
2023-01-11T10:45:49.542Z,93741.06
2023-01-11T10:50:59.886Z,93727.19
2023-01-11T10:56:13.105Z,93736.66
2023-01-11T11:01:25.728Z,93738.81
2023-01-11T11:06:39.813Z,93738.81
2023-01-11T11:11:47.946Z,93732.25
2023-01-11T11:17:01.344Z,93721.28
2023-01-11T11:22:02.842Z,93725.06
2023-01-11T11:27:17.947Z,93719.47
2023-01-11T11:32:25.487Z,93716.34
2023-01-11T11:37:31.549Z,93698.28
2023-01-11T11:42:34.399Z,93698.00
2023-01-11T11:47:36.558Z,93691.03
2023-01-11T11:52:41.477Z,93692.97
2023-01-11T11:57:44.480Z,93684.44
2023-01-11T12:02:50.264Z,93675.66
2023-01-11T12:07:55.392Z,93672.22
2023-01-11T12:13:00.383Z,93661.59
2023-01-11T12:18:18.861Z,93658.31
2023-01-11T12:23:21.879Z,93657.81
2023-01-11T12:28:35.206Z,93655.00
2023-01-11T12:33:44.971Z,93644.38
2023-01-11T12:38:57.579Z,93650.78
2023-01-11T12:44:07.096Z,93653.53
2023-01-11T12:49:23.422Z,93647.47
2023-01-11T12:54:43.749Z,93649.63
2023-01-11T13:00:27.152Z,93650.63
2023-01-11T13:05:36.010Z,93642.13
2023-01-11T13:10:51.288Z,93634.13
2023-01-11T13:16:00.571Z,93636.25
2023-01-11T13:21:12.455Z,93635.28
2023-01-11T13:26:21.219Z,93650.66
2023-01-11T13:31:23.829Z,93641.88
2023-01-11T13:36:33.155Z,93645.31
2023-01-11T13:41:41.170Z,93646.22
2023-01-11T13:46:53.709Z,93656.56
2023-01-11T13:51:59.993Z,93663.75
2023-01-11T13:57:06.916Z,93671.00
2023-01-11T14:02:15.696Z,93671.16
2023-01-11T14:07:32.233Z,93677.53
2023-01-11T14:12:51.567Z,93682.09
2023-01-11T14:18:10.221Z,93703.06
2023-01-11T14:23:16.386Z,93696.00
2023-01-11T14:28:38.769Z,93710.47
2023-01-11T14:34:25.824Z,93722.09
2023-01-11T14:39:52.915Z,93717.16
2023-01-11T14:45:15.777Z,93729.25
2023-01-11T14:50:27.497Z,93738.94
2023-01-11T14:55:35.235Z,93739.38
2023-01-11T15:00:57.435Z,93744.59
2023-01-11T15:06:01.978Z,93738.88
2023-01-11T15:11:20.695Z,93747.22
2023-01-11T15:16:24.091Z,93766.72
2023-01-11T15:21:28.430Z,93765.59
2023-01-11T15:26:31.434Z,93783.44
2023-01-11T15:31:42.862Z,93786.56
2023-01-11T15:36:53.961Z,93789.50
2023-01-11T15:42:31.408Z,93800.31
2023-01-11T15:47:55.486Z,93807.66
2023-01-11T15:53:41.388Z,93820.94
2023-01-11T15:59:10.313Z,93856.88
2023-01-11T16:04:27.790Z,93858.16
2023-01-11T16:09:44.369Z,93875.22
2023-01-11T16:15:16.188Z,93878.81
2023-01-11T16:20:27.270Z,93882.06
2023-01-11T16:25:30.691Z,93896.84
2023-01-11T16:30:34.025Z,93905.63
2023-01-11T16:35:35.709Z,93920.06
2023-01-11T16:40:41.591Z,93913.81
2023-01-11T16:45:46.505Z,93925.78
2023-01-11T16:50:59.297Z,93931.38
2023-01-11T16:56:03.227Z,93928.59
2023-01-11T17:01:08.184Z,93933.84
2023-01-11T17:06:27.251Z,93938.59
2023-01-11T17:11:34.486Z,93947.94
2023-01-11T17:16:40.161Z,93959.72
2023-01-11T17:21:47.407Z,93970.22
2023-01-11T17:26:51.211Z,93961.53
2023-01-11T17:31:55.531Z,93970.22
2023-01-11T17:36:58.141Z,93977.09
2023-01-11T17:42:01.452Z,93982.50
2023-01-11T17:47:07.911Z,93987.53
2023-01-11T17:52:16.486Z,93997.00
2023-01-11T17:57:18.038Z,94011.41
2023-01-11T18:02:20.959Z,94008.00
2023-01-11T18:07:22.552Z,94001.44
2023-01-11T18:12:29.108Z,94005.38
2023-01-11T18:17:36.838Z,94011.91
2023-01-11T18:22:39.188Z,94010.00
2023-01-11T18:27:40.820Z,94017.97
2023-01-11T18:32:43.958Z,94033.16
2023-01-11T18:37:45.877Z,94031.03
2023-01-11T18:42:50.437Z,94033.66
2023-01-11T18:47:53.352Z,94031.44
2023-01-11T18:52:54.913Z,94040.34
2023-01-11T18:57:58.298Z,94044.03
2023-01-11T19:03:03.043Z,94035.28
2023-01-11T19:08:04.981Z,94040.34
2023-01-11T19:13:06.510Z,94037.69
2023-01-11T19:18:09.504Z,94042.38
2023-01-11T19:23:11.050Z,94036.47
2023-01-11T19:28:12.565Z,94047.53
2023-01-11T19:33:15.475Z,94060.81
2023-01-11T19:38:17.368Z,94047.28
2023-01-11T19:43:18.919Z,94055.97
2023-01-11T19:48:21.816Z,94075.56
2023-01-11T19:53:23.478Z,94083.88
2023-01-11T19:58:25.053Z,94075.09
2023-01-11T20:03:28.424Z,94068.38
2023-01-11T20:08:30.113Z,94070.25
2023-01-11T20:13:31.610Z,94073.09
2023-01-11T20:18:34.554Z,94074.78
2023-01-11T20:23:36.856Z,94072.47
2023-01-11T20:28:38.378Z,94083.66
2023-01-11T20:33:41.302Z,94081.50
2023-01-11T20:38:44.034Z,94098.91
2023-01-11T20:43:45.557Z,94096.31
2023-01-11T20:48:49.277Z,94111.72
2023-01-11T20:53:51.283Z,94115.97
2023-01-11T20:58:52.810Z,94120.06
2023-01-11T21:03:58.778Z,94124.88
2023-01-11T21:09:01.598Z,94131.09
2023-01-11T21:14:04.350Z,94134.09
2023-01-11T21:19:07.668Z,94131.81
2023-01-11T21:24:11.886Z,94135.56
2023-01-11T21:29:13.542Z,94138.78
2023-01-11T21:34:16.521Z,94147.13
2023-01-11T21:39:18.062Z,94149.16
2023-01-11T21:44:21.055Z,94172.97
2023-01-11T21:49:23.991Z,94158.78
2023-01-11T21:54:25.779Z,94166.78
2023-01-11T21:59:27.334Z,94157.56
2023-01-11T22:04:30.251Z,94169.50
2023-01-11T22:09:31.758Z,94168.47
2023-01-11T22:14:33.273Z,94161.09
2023-01-11T22:19:36.188Z,94161.03
2023-01-11T22:24:37.734Z,94157.28
2023-01-11T22:29:39.263Z,94167.50
2023-01-11T22:34:42.102Z,94166.84
2023-01-11T22:39:43.654Z,94166.38
2023-01-11T22:44:45.304Z,94169.69
2023-01-11T22:49:48.128Z,94150.28
2023-01-11T22:54:49.715Z,94159.66
2023-01-11T22:59:51.278Z,94166.06
2023-01-11T23:04:54.156Z,94166.59
2023-01-11T23:09:55.633Z,94161.72
2023-01-11T23:14:57.139Z,94171.34
2023-01-11T23:19:59.998Z,94177.03
2023-01-11T23:25:01.473Z,94186.59
2023-01-11T23:30:03.929Z,94190.22
2023-01-11T23:35:07.409Z,94175.44
2023-01-11T23:40:10.147Z,94169.16
2023-01-11T23:45:11.667Z,94162.69
2023-01-11T23:50:15.116Z,94166.91
2023-01-11T23:55:16.635Z,94155.91
